CYQR

Regina International Airport

Regina, Saskatchewan, Canada
TAF CYQR 211738Z 2118/2218 17005KT P6SM FEW070 OVC280 FM212200 13010KT P6SM SCT080 BKN280 FM220400 12010KT P6SM BKN080 FM221200 11008KT P6SM FEW080 BKN250 RMK NXT FCST BY 220000Z
Issued Valid From Valid To
Jun-21 @ 17:38 UTC
(29 minutes ago)
Jun-21 @ 18:00 UTC
(7 minutes ago)
Jun-22 @ 18:00 UTC
(in 24 hours)
Jun-21 @ 18:00 to Jun-21 @ 22:00
TAF CYQR 211738Z 2118/2218 17005KT P6SM FEW070 OVC280
Wind Visibility Clouds
170° at 5 knots Greater than 6 miles
  • Few at 7,000' AGL
  • Overcast at 28,000' AGL
From Jun-21 @ 22:00 to Jun-22 @ 04:00
FM212200 13010KT P6SM SCT080 BKN280
Wind Visibility Clouds
130° at 10 knots Greater than 6 miles
  • Scattered at 8,000' AGL
  • Broken at 28,000' AGL
From Jun-22 @ 04:00 to Jun-22 @ 12:00
FM220400 12010KT P6SM BKN080
Wind Visibility Clouds
120° at 10 knots Greater than 6 miles
  • Broken at 8,000' AGL
From Jun-22 @ 12:00 to Jun-22 @ 18:00
FM221200 11008KT P6SM FEW080 BKN250 RMK NXT FCST BY 220000Z
Wind Visibility Clouds
110° at 8 knots Greater than 6 miles
  • Few at 8,000' AGL
  • Broken at 25,000' AGL
TAF CYQR 211738Z 2118/2218 17005KT P6SM FEW070 OVC280 FM212200 13010KT P6SM SCT080 BKN280 FM220400 12010KT P6SM BKN080 FM221200 11008KT P6SM FEW080 BKN250 RMK NXT FCST BY 220000Z
Issued Jun-21 @ 17:38 UTC
(29 minutes ago)
Valid From Jun-21 @ 18:00 UTC
(7 minutes ago)
Valid To Jun-22 @ 18:00 UTC
(in 24 hours)
Jun-21 @ 18:00 - Jun-21 @ 22:00
Wind Visibility
170° at 5 knots Greater than 6 miles
Clouds
  • Few at 7,000' AGL
  • Overcast at 28,000' AGL
From Jun-21 @ 22:00 - Jun-22 @ 04:00
Wind Visibility
130° at 10 knots Greater than 6 miles
Clouds
  • Scattered at 8,000' AGL
  • Broken at 28,000' AGL
From Jun-22 @ 04:00 - Jun-22 @ 12:00
Wind Visibility
120° at 10 knots Greater than 6 miles
Clouds
  • Broken at 8,000' AGL
From Jun-22 @ 12:00 - Jun-22 @ 18:00
Wind Visibility
110° at 8 knots Greater than 6 miles
Clouds
  • Few at 8,000' AGL
  • Broken at 25,000' AGL